createdAt,value
2022-08-02T00:01:40.324Z,3.00
2022-08-02T00:05:53.668Z,3.60
2022-08-02T00:10:08.154Z,4.10
2022-08-02T00:21:02.539Z,3.30
2022-08-02T00:27:39.418Z,3.00
2022-08-02T00:34:32.034Z,3.20
2022-08-02T00:41:49.767Z,2.50
2022-08-02T00:52:13.963Z,3.60
2022-08-02T00:56:14.209Z,3.40
2022-08-02T01:02:42.353Z,2.70
2022-08-02T01:06:10.215Z,3.00
2022-08-02T01:09:22.372Z,3.20
2022-08-02T01:13:30.311Z,2.90
2022-08-02T01:17:21.151Z,2.80
2022-08-02T01:20:42.627Z,3.00
2022-08-02T01:24:41.273Z,3.20
2022-08-02T01:28:45.825Z,3.10
2022-08-02T01:32:36.116Z,3.20
2022-08-02T05:01:44.962Z,3.70
2022-08-02T05:04:13.865Z,4.40
2022-08-02T05:06:42.662Z,4.30
2022-08-02T05:09:11.763Z,4.20
2022-08-02T05:11:40.743Z,4.30
2022-08-02T05:14:09.743Z,4.60
2022-08-02T05:16:38.632Z,3.70
2022-08-02T05:19:07.723Z,3.50
2022-08-02T05:21:36.644Z,4.20
2022-08-02T05:24:06.441Z,3.70
2022-08-02T05:26:35.448Z,4.30
2022-08-02T05:29:05.084Z,4.30
2022-08-02T05:31:33.822Z,4.50
2022-08-02T05:34:02.623Z,4.30
2022-08-02T05:36:31.703Z,4.60
2022-08-02T05:39:05.079Z,4.20
2022-08-02T05:41:34.702Z,5.30
2022-08-02T05:44:04.822Z,4.60
2022-08-02T05:46:33.643Z,5.00
2022-08-02T05:49:04.710Z,4.90
2022-08-02T05:51:59.703Z,4.90
2022-08-02T05:54:55.291Z,5.50
2022-08-02T05:57:55.662Z,5.30
2022-08-02T06:00:26.622Z,5.10
2022-08-02T06:03:20.029Z,5.00
2022-08-02T06:06:12.161Z,4.60
2022-08-02T06:08:48.750Z,4.70
2022-08-02T06:11:23.168Z,4.90
2022-08-02T06:13:52.962Z,5.40
2022-08-02T06:16:32.374Z,5.70
2022-08-02T06:19:02.891Z,5.50
2022-08-02T06:22:34.575Z,4.80
2022-08-02T06:24:24.262Z,5.20
2022-08-02T06:26:55.762Z,5.00
2022-08-02T06:29:26.330Z,5.60
2022-08-02T06:31:55.242Z,6.10
2022-08-02T06:34:24.443Z,5.70
2022-08-02T06:37:40.342Z,5.30
2022-08-02T06:40:17.423Z,5.10
2022-08-02T06:43:18.366Z,4.80
2022-08-02T06:45:47.236Z,5.80
2022-08-02T06:48:16.345Z,5.10
2022-08-02T06:50:45.331Z,4.50
2022-08-02T06:53:14.542Z,5.30
2022-08-02T06:55:44.966Z,4.50
2022-08-02T06:58:15.404Z,4.70
2022-08-02T07:00:44.802Z,4.50
2022-08-02T07:03:14.343Z,4.60
2022-08-02T07:05:48.193Z,3.70
2022-08-02T07:08:17.362Z,3.70
2022-08-02T07:10:47.164Z,3.90
2022-08-02T07:13:16.123Z,3.50
2022-08-02T07:15:48.974Z,3.30
2022-08-02T07:18:18.704Z,3.90
2022-08-02T07:20:48.222Z,3.30
2022-08-02T07:23:17.722Z,3.40
2022-08-02T07:26:03.139Z,3.30
2022-08-02T07:28:33.982Z,3.70
2022-08-02T07:31:03.245Z,3.50
2022-08-02T07:33:37.709Z,3.90
2022-08-02T07:36:16.916Z,3.30
2022-08-02T07:38:51.725Z,3.20
2022-08-02T07:41:22.762Z,3.10
2022-08-02T07:43:52.057Z,3.30
2022-08-02T07:46:20.842Z,3.30
2022-08-02T07:48:49.940Z,3.40
2022-08-02T07:51:18.843Z,2.90
2022-08-02T07:53:51.260Z,3.20
2022-08-02T07:56:20.822Z,3.10
2022-08-02T07:58:50.223Z,2.60
2022-08-02T08:01:19.272Z,3.00
2022-08-02T08:03:48.622Z,3.10
2022-08-02T08:06:17.922Z,2.60
2022-08-02T08:08:47.022Z,2.80
2022-08-02T08:11:16.122Z,2.90
2022-08-02T08:13:45.302Z,2.80
2022-08-02T08:16:14.403Z,2.50
2022-08-02T08:18:43.402Z,2.30
2022-08-02T08:21:12.403Z,2.30
2022-08-02T08:23:41.762Z,2.10
2022-08-02T08:26:14.010Z,2.30
2022-08-02T08:28:44.803Z,2.20
2022-08-02T08:31:13.802Z,2.00
2022-08-02T08:33:42.983Z,2.00
2022-08-02T08:36:12.283Z,1.90
2022-08-02T08:38:41.302Z,2.30
2022-08-02T08:41:10.505Z,1.70
2022-08-02T08:43:39.482Z,1.80
2022-08-02T08:46:12.622Z,1.60
2022-08-02T08:48:50.459Z,1.80
2022-08-02T08:51:23.817Z,2.00
2022-08-02T08:53:57.567Z,1.70
2022-08-02T08:56:34.169Z,1.70
2022-08-02T08:59:05.069Z,1.50
2022-08-02T09:01:49.658Z,1.70
2022-08-02T09:04:20.303Z,1.80
2022-08-02T09:06:49.547Z,1.70
2022-08-02T09:09:18.456Z,1.70
2022-08-02T09:11:47.264Z,1.70
2022-08-02T09:14:33.166Z,1.80
2022-08-02T09:17:13.043Z,1.80
2022-08-02T09:19:46.290Z,1.90
2022-08-02T09:22:16.359Z,1.90
2022-08-02T09:24:51.845Z,1.90
2022-08-02T09:27:23.717Z,1.50
2022-08-02T09:30:12.105Z,2.20
2022-08-02T09:32:48.452Z,1.80
2022-08-02T09:36:05.938Z,2.00
2022-08-02T09:38:34.162Z,2.00
2022-08-02T09:41:06.059Z,2.00
2022-08-02T09:44:03.626Z,2.30
2022-08-02T09:46:43.257Z,2.00
2022-08-02T09:49:19.814Z,2.00
2022-08-02T09:51:55.116Z,2.00
2022-08-02T09:54:30.422Z,2.10
2022-08-02T09:57:02.702Z,2.10
2022-08-02T09:59:32.047Z,1.80
2022-08-02T10:02:04.062Z,2.20
2022-08-02T10:04:53.022Z,1.90
2022-08-02T10:07:23.836Z,2.00
2022-08-02T10:09:52.882Z,2.20
2022-08-02T10:12:23.487Z,1.80
2022-08-02T10:14:52.688Z,1.80
2022-08-02T10:17:22.587Z,2.30
2022-08-02T10:20:02.877Z,2.10
2022-08-02T10:22:35.461Z,2.00
2022-08-02T10:25:07.106Z,2.00
2022-08-02T10:28:04.104Z,2.00
2022-08-02T10:30:29.957Z,1.90
2022-08-02T10:33:03.063Z,2.30
2022-08-02T10:35:38.675Z,1.70
2022-08-02T10:38:12.042Z,1.70
2022-08-02T10:40:51.227Z,2.60
2022-08-02T10:43:32.449Z,2.50
2022-08-02T10:46:35.639Z,1.80
2022-08-02T10:52:03.922Z,1.80
2022-08-02T10:55:00.602Z,1.60
2022-08-02T10:57:36.304Z,2.00
2022-08-02T11:00:24.903Z,1.80
2022-08-02T11:02:54.581Z,2.10
2022-08-02T11:05:43.076Z,2.00
2022-08-02T11:08:21.966Z,2.10
2022-08-02T11:10:51.375Z,2.00
2022-08-02T11:13:20.884Z,2.10
2022-08-02T11:16:01.937Z,2.10
2022-08-02T11:18:52.763Z,2.10
2022-08-02T11:21:28.508Z,2.10
2022-08-02T11:24:28.782Z,2.20
2022-08-02T11:27:00.703Z,1.90
2022-08-02T11:29:42.381Z,1.80
2022-08-02T11:32:38.107Z,1.90
2022-08-02T11:35:08.256Z,2.00
2022-08-02T11:37:42.145Z,1.90
2022-08-02T11:40:19.303Z,1.60
2022-08-02T11:42:54.182Z,1.90
2022-08-02T11:45:29.790Z,1.60
2022-08-02T11:47:59.437Z,1.80
2022-08-02T11:50:30.166Z,2.20
2022-08-02T11:53:00.079Z,1.30
2022-08-02T11:55:33.129Z,1.70
2022-08-02T11:58:08.255Z,1.80
2022-08-02T12:00:36.983Z,1.80
2022-08-02T12:03:08.043Z,1.60
2022-08-02T12:06:05.486Z,1.70
2022-08-02T12:08:26.741Z,1.70
2022-08-02T12:10:56.697Z,1.50
2022-08-02T12:13:25.988Z,1.50
2022-08-02T12:15:54.901Z,1.50
2022-08-02T12:18:42.828Z,1.60
2022-08-02T12:21:38.135Z,1.70
2022-08-02T12:24:07.760Z,1.50
2022-08-02T12:26:48.473Z,1.50
2022-08-02T12:29:58.446Z,2.20
2022-08-02T12:32:07.797Z,1.60
2022-08-02T12:34:37.011Z,1.70
2022-08-02T12:37:11.649Z,1.50
2022-08-02T12:39:46.471Z,2.00
2022-08-02T12:42:17.037Z,1.80
2022-08-02T12:45:00.574Z,2.00
2022-08-02T12:47:35.596Z,1.80
2022-08-02T12:50:25.883Z,2.00
2022-08-02T12:53:13.229Z,2.00
2022-08-02T12:56:02.543Z,2.40
2022-08-02T12:58:49.297Z,1.80
2022-08-02T13:01:23.773Z,2.30
2022-08-02T13:04:10.221Z,1.90
2022-08-02T13:06:44.952Z,1.90
2022-08-02T13:09:17.801Z,1.80
2022-08-02T13:11:47.295Z,1.90
2022-08-02T13:14:17.092Z,1.80
2022-08-02T13:16:47.841Z,1.60
2022-08-02T13:19:16.955Z,1.60
2022-08-02T13:22:02.382Z,2.00
2022-08-02T13:24:40.796Z,1.80
2022-08-02T13:27:23.783Z,1.90
2022-08-02T13:29:56.407Z,1.80
2022-08-02T13:32:29.350Z,2.00
2022-08-02T13:34:59.977Z,1.80
2022-08-02T13:37:29.163Z,2.20
2022-08-02T13:42:47.741Z,2.00
2022-08-02T13:45:17.378Z,1.90
2022-08-02T13:48:03.469Z,2.00
2022-08-02T13:50:34.576Z,2.00
2022-08-02T13:53:04.501Z,2.00
2022-08-02T13:55:33.543Z,1.90
2022-08-02T13:58:02.982Z,1.60
2022-08-02T14:00:34.615Z,2.20
2022-08-02T14:03:11.966Z,2.00
2022-08-02T14:05:48.189Z,2.00
2022-08-02T14:08:20.494Z,1.60
2022-08-02T14:10:51.289Z,2.80
2022-08-02T14:13:20.501Z,1.80
2022-08-02T14:15:50.212Z,2.10
2022-08-02T14:18:19.616Z,2.10
2022-08-02T14:20:48.422Z,2.40
2022-08-02T14:23:17.412Z,2.00
2022-08-02T14:25:46.718Z,1.80
2022-08-02T14:28:16.080Z,1.90
2022-08-02T14:30:49.509Z,1.90
2022-08-02T14:33:20.681Z,2.00
2022-08-02T14:35:50.009Z,1.90
2022-08-02T14:38:28.653Z,2.00
2022-08-02T14:41:00.996Z,2.00
2022-08-02T14:43:48.910Z,1.70
2022-08-02T14:46:18.748Z,1.50
2022-08-02T14:48:48.672Z,2.10
2022-08-02T14:51:17.974Z,1.90
2022-08-02T14:53:49.013Z,1.80
2022-08-02T14:56:20.380Z,1.90
2022-08-02T14:58:49.303Z,2.00
2022-08-02T15:01:18.247Z,2.20
2022-08-02T15:03:47.502Z,1.90
2022-08-02T15:06:16.341Z,2.20
2022-08-02T15:08:45.257Z,2.20
2022-08-02T15:11:14.621Z,1.90
2022-08-02T15:13:43.562Z,2.10
2022-08-02T15:16:12.482Z,2.20
2022-08-02T15:18:41.441Z,1.80
2022-08-02T15:21:41.916Z,2.30
2022-08-02T15:24:00.343Z,1.80
2022-08-02T15:26:29.363Z,2.00
2022-08-02T15:28:58.318Z,2.00
2022-08-02T15:31:33.446Z,1.90
2022-08-02T15:34:02.736Z,1.80
2022-08-02T15:36:31.744Z,1.70
2022-08-02T15:39:00.583Z,2.00
2022-08-02T15:41:29.617Z,1.70
2022-08-02T15:44:00.171Z,2.20
2022-08-02T15:46:37.802Z,3.80
2022-08-02T15:49:07.426Z,2.80
2022-08-02T15:51:36.556Z,3.00
2022-08-02T15:54:05.662Z,2.40
2022-08-02T15:56:34.662Z,2.10
2022-08-02T15:59:03.757Z,2.00
2022-08-02T16:01:37.310Z,1.90
2022-08-02T16:04:08.189Z,2.20
2022-08-02T16:06:37.678Z,2.10
2022-08-02T16:09:06.702Z,2.40
2022-08-02T16:11:35.902Z,2.10
2022-08-02T16:14:04.982Z,2.00
2022-08-02T16:16:36.578Z,1.90
2022-08-02T16:19:46.898Z,2.00
2022-08-02T16:21:56.676Z,1.90
2022-08-02T16:24:26.759Z,2.00
2022-08-02T16:26:55.555Z,2.20
2022-08-02T16:29:24.543Z,2.20
2022-08-02T16:31:53.242Z,2.00
2022-08-02T16:34:22.242Z,2.20
2022-08-02T16:36:51.318Z,2.10
2022-08-02T16:39:20.627Z,2.00
2022-08-02T16:41:51.337Z,1.80
2022-08-02T16:44:29.698Z,2.10
2022-08-02T16:47:00.552Z,1.80
2022-08-02T16:50:06.961Z,1.80
2022-08-02T16:52:20.517Z,1.90
2022-08-02T16:54:50.090Z,2.10
2022-08-02T16:57:19.666Z,1.90
2022-08-02T16:59:57.904Z,2.00
2022-08-02T17:02:28.389Z,1.90
2022-08-02T17:04:57.458Z,1.80
2022-08-02T17:08:15.238Z,2.40
2022-08-02T17:10:18.940Z,2.20
2022-08-02T17:12:51.292Z,2.20
2022-08-02T17:16:07.971Z,1.80
2022-08-02T17:18:10.143Z,2.00
2022-08-02T17:20:39.041Z,2.10
2022-08-02T17:23:09.225Z,1.80
2022-08-02T17:25:52.408Z,1.80
2022-08-02T17:28:21.395Z,2.00
2022-08-02T17:31:02.160Z,2.10
2022-08-02T17:33:30.939Z,1.90
2022-08-02T17:36:00.543Z,1.90
2022-08-02T17:38:29.964Z,2.20
2022-08-02T17:41:01.124Z,1.70
2022-08-02T17:43:33.178Z,1.90
2022-08-02T17:46:08.632Z,2.40
2022-08-02T17:48:56.912Z,2.30
2022-08-02T17:52:15.391Z,2.10
2022-08-02T17:54:18.918Z,2.00
2022-08-02T17:56:51.177Z,2.20
2022-08-02T17:59:30.752Z,2.00
2022-08-02T18:02:03.716Z,2.30
2022-08-02T18:04:35.036Z,2.70
2022-08-02T18:07:09.921Z,2.30
2022-08-02T18:09:43.356Z,2.10
2022-08-02T18:12:15.347Z,2.30
2022-08-02T18:14:49.060Z,2.10
2022-08-02T18:17:19.402Z,2.20
2022-08-02T18:19:57.411Z,3.70
2022-08-02T18:22:32.623Z,2.60
2022-08-02T18:27:50.482Z,1.80
2022-08-02T18:30:21.668Z,2.00
2022-08-02T18:33:57.762Z,2.50
2022-08-02T18:35:46.782Z,2.40
2022-08-02T18:38:16.364Z,2.20
2022-08-02T18:40:50.771Z,2.10
2022-08-02T18:43:25.764Z,2.40
2022-08-02T18:46:07.098Z,2.20
2022-08-02T18:48:46.258Z,2.40
2022-08-02T18:51:18.636Z,2.40
2022-08-02T18:53:52.842Z,2.50
2022-08-02T18:56:24.194Z,2.50
2022-08-02T18:58:55.445Z,2.70
2022-08-02T19:01:32.772Z,2.50
2022-08-02T19:04:05.065Z,2.60
2022-08-02T19:06:33.883Z,2.30
2022-08-02T19:09:11.110Z,2.40
2022-08-02T19:11:48.120Z,2.70
2022-08-02T19:14:27.146Z,2.20
2022-08-02T19:17:15.973Z,2.40
2022-08-02T19:19:51.244Z,2.90
2022-08-02T19:22:20.564Z,14.80
2022-08-02T19:24:52.302Z,5.10
2022-08-02T19:27:25.875Z,7.30
2022-08-02T19:29:55.122Z,4.50
2022-08-02T19:32:41.683Z,5.20
2022-08-02T19:35:29.435Z,3.30
2022-08-02T19:38:11.987Z,2.60
2022-08-02T19:40:42.925Z,3.60
2022-08-02T19:44:25.149Z,2.80
2022-08-02T19:46:02.190Z,3.00
2022-08-02T19:48:30.972Z,2.80
2022-08-02T19:51:01.495Z,3.10
2022-08-02T19:53:47.888Z,3.10
2022-08-02T19:56:25.052Z,2.90
2022-08-02T19:58:58.036Z,2.90
2022-08-02T20:01:38.745Z,2.90
2022-08-02T20:04:12.829Z,3.00
2022-08-02T20:06:47.963Z,2.70
2022-08-02T20:09:22.267Z,3.20
2022-08-02T20:11:54.730Z,3.10
2022-08-02T20:14:26.750Z,3.10
2022-08-02T20:16:59.444Z,3.50
2022-08-02T20:19:29.033Z,3.20
2022-08-02T20:22:00.110Z,3.40
2022-08-02T20:24:30.523Z,3.10
2022-08-02T20:27:00.501Z,4.10
2022-08-02T20:29:45.053Z,4.10
2022-08-02T20:32:24.543Z,3.70
2022-08-02T20:34:53.470Z,3.50
2022-08-02T20:38:01.473Z,4.50
2022-08-02T20:40:16.625Z,3.70
2022-08-02T20:42:48.308Z,4.20
2022-08-02T20:45:22.182Z,3.60
2022-08-02T20:47:52.534Z,3.30
2022-08-02T20:50:41.762Z,3.50
2022-08-02T20:56:01.464Z,4.70
2022-08-02T20:58:31.085Z,4.40
2022-08-02T21:01:00.199Z,5.10
2022-08-02T21:03:38.823Z,4.80
2022-08-02T21:06:15.024Z,5.60
2022-08-02T21:08:46.397Z,5.50
2022-08-02T21:11:15.389Z,6.00
2022-08-02T21:13:47.071Z,5.40
2022-08-02T21:16:33.246Z,6.80
2022-08-02T21:19:02.845Z,7.20
2022-08-02T21:21:37.883Z,7.60
2022-08-02T21:24:07.183Z,7.00
2022-08-02T21:26:41.304Z,6.40
2022-08-02T21:29:10.903Z,6.20
2022-08-02T21:31:43.374Z,5.50
2022-08-02T21:34:22.547Z,4.60
2022-08-02T21:36:56.844Z,4.60
2022-08-02T21:39:25.724Z,4.30
2022-08-02T21:41:54.724Z,4.10
2022-08-02T21:44:23.910Z,3.90
2022-08-02T21:46:55.490Z,3.90
2022-08-02T21:49:41.060Z,3.70
2022-08-02T21:52:16.021Z,3.70
2022-08-02T21:54:45.789Z,3.50
2022-08-02T21:57:16.845Z,3.90
2022-08-02T22:58:56.455Z,3.50
2022-08-02T22:58:59.433Z,2.40
